createdAt,value
2023-03-06T00:00:31.308Z,95400.47
2023-03-06T00:02:57.845Z,95401.94
2023-03-06T00:05:27.341Z,95397.00
2023-03-06T00:07:53.921Z,95402.44
2023-03-06T00:10:22.013Z,95398.59
2023-03-06T00:12:48.899Z,95399.31
2023-03-06T00:15:15.410Z,95397.22
2023-03-06T00:17:41.945Z,95394.59
2023-03-06T00:20:08.962Z,95387.25
2023-03-06T00:22:35.546Z,95395.28
2023-03-06T00:25:02.090Z,95394.59
2023-03-06T00:27:28.589Z,95395.72
2023-03-06T00:29:56.067Z,95392.13
2023-03-06T00:32:22.749Z,95392.72
2023-03-06T00:34:50.157Z,95391.19
2023-03-06T00:37:16.695Z,95390.34
2023-03-06T00:39:43.189Z,95381.47
2023-03-06T00:42:09.721Z,95384.94
2023-03-06T00:44:36.278Z,95387.19
2023-03-06T00:47:02.858Z,95381.53
2023-03-06T00:49:29.344Z,95384.00
2023-03-06T00:51:55.914Z,95386.78
2023-03-06T00:54:22.404Z,95392.06
2023-03-06T00:56:48.880Z,95378.44
2023-03-06T00:59:15.424Z,95375.53
2023-03-06T01:01:42.081Z,95361.38
2023-03-06T01:04:08.590Z,95356.81
2023-03-06T01:06:35.115Z,95357.50
2023-03-06T01:09:01.786Z,95359.31
2023-03-06T01:11:28.386Z,95354.19
2023-03-06T01:13:54.901Z,95354.03
2023-03-06T01:16:21.624Z,95345.31
2023-03-06T01:18:48.818Z,95342.97
2023-03-06T01:21:15.417Z,95341.19
2023-03-06T01:23:42.270Z,95348.41
2023-03-06T01:26:10.029Z,95334.16
2023-03-06T01:28:37.564Z,95335.94
2023-03-06T01:31:04.177Z,95330.00
2023-03-06T01:33:30.789Z,95330.66
2023-03-06T01:35:57.362Z,95326.25
2023-03-06T01:38:24.045Z,95324.59
2023-03-06T01:40:50.580Z,95321.81
2023-03-06T01:43:26.725Z,95323.47
2023-03-06T01:46:12.191Z,95309.34
2023-03-06T01:52:12.653Z,95302.00
2023-03-06T01:54:43.455Z,95302.72
2023-03-06T01:57:13.042Z,95296.91
2023-03-06T01:59:41.034Z,95298.81
2023-03-06T02:02:08.881Z,95302.88
2023-03-06T02:04:36.973Z,95301.66
2023-03-06T02:07:06.433Z,95304.59
2023-03-06T02:09:34.815Z,95302.09
2023-03-06T02:12:02.186Z,95301.41
2023-03-06T02:14:29.414Z,95292.53
2023-03-06T02:16:56.005Z,95288.94
2023-03-06T02:19:47.025Z,95283.53
2023-03-06T02:22:13.579Z,95291.28
2023-03-06T02:24:42.861Z,95285.47
2023-03-06T02:29:49.316Z,95276.22
2023-03-06T02:32:15.901Z,95272.50
2023-03-06T02:34:42.397Z,95270.69
2023-03-06T02:37:10.093Z,95272.06
2023-03-06T02:39:39.791Z,95262.91
2023-03-06T02:42:06.347Z,95271.50
2023-03-06T02:44:34.362Z,95268.16
2023-03-06T02:47:00.938Z,95271.78
2023-03-06T02:49:27.502Z,95273.88
2023-03-06T02:51:54.007Z,95267.66
2023-03-06T02:54:20.575Z,95268.16
2023-03-06T02:56:47.089Z,95273.16
2023-03-06T02:59:13.622Z,95263.47
2023-03-06T03:01:40.211Z,95260.38
2023-03-06T03:04:06.793Z,95261.22
2023-03-06T03:06:33.566Z,95258.19
2023-03-06T03:10:55.862Z,95269.69
2023-03-06T03:13:22.427Z,95260.28
2023-03-06T03:16:02.776Z,95256.28
2023-03-06T03:18:29.434Z,95252.59
2023-03-06T03:20:55.932Z,95249.94
2023-03-06T03:23:22.520Z,95243.72
2023-03-06T03:25:49.272Z,95244.53
2023-03-06T03:28:16.214Z,95246.91
2023-03-06T03:30:42.824Z,95246.09
2023-03-06T03:33:09.569Z,95238.22
2023-03-06T03:36:10.044Z,95231.13
2023-03-06T03:38:36.557Z,95235.13
2023-03-06T03:41:03.881Z,95225.88
2023-03-06T03:43:30.439Z,95228.66
2023-03-06T03:45:56.959Z,95229.47
2023-03-06T03:48:23.453Z,95225.88
2023-03-06T03:53:26.671Z,95227.16
2023-03-06T03:55:53.182Z,95221.34
2023-03-06T03:58:19.670Z,95226.19
2023-03-06T04:00:47.228Z,95221.06
2023-03-06T04:03:13.802Z,95223.16
2023-03-06T04:05:40.377Z,95219.84
2023-03-06T04:08:07.770Z,95221.47
2023-03-06T04:10:34.532Z,95214.44
2023-03-06T04:13:01.067Z,95208.47
2023-03-06T04:15:27.588Z,95206.00
2023-03-06T04:17:54.132Z,95210.44
2023-03-06T04:20:20.793Z,95220.66
2023-03-06T04:22:47.411Z,95213.34
2023-03-06T04:25:13.946Z,95213.09
2023-03-06T04:27:40.529Z,95211.06
2023-03-06T04:30:07.366Z,95202.47
2023-03-06T04:32:33.986Z,95194.97
2023-03-06T04:35:00.482Z,95191.09
2023-03-06T04:37:27.090Z,95199.38
2023-03-06T04:39:53.619Z,95203.41
2023-03-06T04:42:20.205Z,95191.28
2023-03-06T04:44:46.737Z,95190.72
2023-03-06T04:47:13.407Z,95195.44
2023-03-06T04:49:39.962Z,95189.72
2023-03-06T04:52:06.625Z,95187.50
2023-03-06T04:54:33.222Z,95186.78
2023-03-06T04:56:59.797Z,95187.94
2023-03-06T04:59:26.344Z,95184.06
2023-03-06T05:02:24.270Z,95186.03
2023-03-06T05:04:50.806Z,95183.91
2023-03-06T05:07:17.415Z,95185.72
2023-03-06T05:09:43.961Z,95182.13
2023-03-06T05:12:10.580Z,95180.31
2023-03-06T05:14:37.121Z,95181.16
2023-03-06T05:17:03.634Z,95178.91
2023-03-06T05:19:30.135Z,95177.28
2023-03-06T05:21:56.698Z,95177.84
2023-03-06T05:24:23.293Z,95181.19
2023-03-06T05:26:49.781Z,95171.94
2023-03-06T05:29:16.336Z,95165.84
2023-03-06T05:31:42.877Z,95177.59
2023-03-06T05:34:12.762Z,95178.28
2023-03-06T05:36:39.355Z,95166.78
2023-03-06T05:39:06.477Z,95167.06
2023-03-06T05:41:32.994Z,95174.41
2023-03-06T05:43:59.505Z,95171.09
2023-03-06T05:46:26.076Z,95168.34
2023-03-06T05:48:55.381Z,95173.28
2023-03-06T05:51:21.938Z,95180.22
2023-03-06T05:53:48.453Z,95174.13
2023-03-06T05:56:15.245Z,95172.47
2023-03-06T05:58:42.250Z,95167.53
2023-03-06T06:01:19.248Z,95171.50
2023-03-06T06:03:46.434Z,95165.97
2023-03-06T06:06:13.998Z,95168.44
2023-03-06T06:08:40.590Z,95172.19
2023-03-06T06:11:10.902Z,95171.78
2023-03-06T06:13:48.540Z,95172.78
2023-03-06T06:16:16.530Z,95169.28
2023-03-06T06:18:43.383Z,95163.06
2023-03-06T06:21:11.253Z,95169.84
2023-03-06T06:23:37.765Z,95165.66
2023-03-06T06:26:05.630Z,95168.38
2023-03-06T06:28:33.457Z,95164.66
2023-03-06T06:31:00.307Z,95163.69
2023-03-06T06:33:27.124Z,95157.84
2023-03-06T06:35:53.718Z,95160.47
2023-03-06T06:38:20.310Z,95163.25
2023-03-06T06:41:04.317Z,95160.22
2023-03-06T06:43:33.312Z,95165.34
2023-03-06T06:46:24.272Z,95171.97
2023-03-06T06:48:49.874Z,95161.53
2023-03-06T06:51:16.933Z,95164.13
2023-03-06T06:53:44.640Z,95163.84
2023-03-06T06:56:11.218Z,95158.84
2023-03-06T06:58:37.765Z,95163.84
2023-03-06T07:01:05.428Z,95170.69
2023-03-06T07:03:31.986Z,95156.03
2023-03-06T07:07:38.478Z,95161.88
2023-03-06T07:10:07.106Z,95161.88
2023-03-06T07:12:35.207Z,95163.22
2023-03-06T07:16:09.464Z,95157.66
2023-03-06T07:18:36.021Z,95158.53
2023-03-06T07:21:02.571Z,95152.59
2023-03-06T07:26:08.422Z,95158.38
2023-03-06T07:28:49.817Z,95159.22
2023-03-06T07:31:18.666Z,95159.41
2023-03-06T07:33:45.543Z,95157.16
2023-03-06T07:36:13.784Z,95159.66
2023-03-06T07:38:40.696Z,95148.22
2023-03-06T07:41:13.256Z,95153.41
2023-03-06T07:43:42.461Z,95150.94
2023-03-06T07:46:09.428Z,95149.16
2023-03-06T07:48:36.805Z,95147.03
2023-03-06T07:51:07.941Z,95146.22
2023-03-06T07:53:35.118Z,95149.88
2023-03-06T07:56:08.553Z,95151.25
2023-03-06T07:58:36.049Z,95140.72
2023-03-06T08:01:06.690Z,95144.94
2023-03-06T08:03:33.538Z,95136.06
2023-03-06T08:08:53.255Z,95133.72
2023-03-06T08:14:00.274Z,95130.63
2023-03-06T08:16:28.212Z,95136.25
2023-03-06T08:18:55.171Z,95129.22
2023-03-06T08:21:25.852Z,95128.66
2023-03-06T08:23:52.780Z,95127.22
2023-03-06T08:26:21.187Z,95127.06
2023-03-06T08:28:47.762Z,95129.09
2023-03-06T08:31:21.485Z,95131.81
2023-03-06T08:33:48.197Z,95127.00
2023-03-06T08:36:14.790Z,95127.13
2023-03-06T08:38:41.320Z,95123.69
2023-03-06T08:41:07.905Z,95128.91
2023-03-06T08:43:35.902Z,95134.16
2023-03-06T08:46:02.793Z,95132.13
2023-03-06T08:48:29.400Z,95125.28
2023-03-06T08:53:04.930Z,95132.00
2023-03-06T08:55:31.389Z,95129.72
2023-03-06T08:57:58.740Z,95132.03
2023-03-06T09:02:40.025Z,95124.47
2023-03-06T09:07:47.541Z,95124.53
2023-03-06T09:10:18.201Z,95122.09
2023-03-06T09:12:50.116Z,95114.03
2023-03-06T09:15:18.252Z,95111.25
2023-03-06T09:17:44.901Z,95109.16
2023-03-06T09:20:29.680Z,95111.59
2023-03-06T09:22:56.352Z,95095.59
2023-03-06T09:25:23.369Z,95097.59
2023-03-06T09:28:01.859Z,95107.03
2023-03-06T09:30:35.420Z,95104.06
2023-03-06T09:33:01.989Z,95102.22
2023-03-06T09:35:28.525Z,95098.13
2023-03-06T09:37:55.012Z,95093.66
2023-03-06T09:40:41.781Z,95087.03
2023-03-06T09:43:17.680Z,95090.16
2023-03-06T09:45:44.589Z,95087.63
2023-03-06T09:48:13.930Z,95082.16
2023-03-06T09:50:50.962Z,95084.16
2023-03-06T09:53:20.183Z,95082.84
2023-03-06T09:55:51.175Z,95082.16
2023-03-06T09:58:21.030Z,95094.47
2023-03-06T10:00:53.437Z,95080.38
2023-03-06T10:03:19.942Z,95082.44
2023-03-06T10:05:53.405Z,95078.91
2023-03-06T10:08:35.441Z,95075.25
2023-03-06T10:11:03.806Z,95072.94
2023-03-06T10:13:43.204Z,95069.25
2023-03-06T10:16:25.447Z,95063.47
2023-03-06T10:18:52.897Z,95061.06
2023-03-06T10:21:19.674Z,95062.66
2023-03-06T10:24:09.420Z,95055.88
2023-03-06T10:26:40.099Z,95047.19
2023-03-06T10:29:19.807Z,95056.28
2023-03-06T10:31:50.327Z,95060.72
2023-03-06T10:36:17.228Z,95050.00
2023-03-06T10:38:44.807Z,95045.66
2023-03-06T10:41:11.315Z,95038.16
2023-03-06T10:43:41.871Z,95032.06
2023-03-06T10:46:10.016Z,95040.81
2023-03-06T10:48:39.346Z,95034.34
2023-03-06T10:51:18.016Z,95034.09
2023-03-06T10:54:07.718Z,95024.94
2023-03-06T10:56:39.213Z,95024.97
2023-03-06T10:59:13.555Z,95025.69
2023-03-06T11:01:41.077Z,95026.75
2023-03-06T11:04:27.948Z,95020.56
2023-03-06T11:07:06.879Z,95017.16
2023-03-06T11:09:33.888Z,95016.75
2023-03-06T11:12:19.024Z,95004.81
2023-03-06T11:14:45.569Z,95010.22
2023-03-06T11:17:32.184Z,95006.13
2023-03-06T11:20:30.318Z,95001.91
2023-03-06T11:23:00.158Z,94994.69
2023-03-06T11:25:29.982Z,94997.28
2023-03-06T11:27:59.462Z,94994.09
2023-03-06T11:31:32.424Z,94993.00
2023-03-06T11:34:04.433Z,94982.47
2023-03-06T11:36:33.836Z,94985.13
2023-03-06T11:39:04.620Z,94987.78
2023-03-06T11:41:31.124Z,94980.84
2023-03-06T11:44:15.423Z,94979.78
2023-03-06T11:46:48.751Z,94973.97
2023-03-06T11:49:15.597Z,94976.88
2023-03-06T11:51:44.965Z,94971.19
2023-03-06T11:54:13.286Z,94967.00
2023-03-06T11:56:45.529Z,94970.34
2023-03-06T11:59:14.790Z,94961.53
2023-03-06T12:01:44.308Z,94956.41
2023-03-06T12:04:13.666Z,94947.84
2023-03-06T12:06:46.041Z,94947.38
2023-03-06T12:09:12.803Z,94945.66
2023-03-06T12:11:51.374Z,94943.78
2023-03-06T12:14:32.670Z,94942.06
2023-03-06T12:17:06.965Z,94940.28
2023-03-06T12:19:45.631Z,94926.13
2023-03-06T12:22:14.906Z,94933.59
2023-03-06T12:24:50.507Z,94937.84
2023-03-06T12:27:27.377Z,94932.44
2023-03-06T12:29:56.867Z,94929.00
2023-03-06T12:32:58.888Z,94933.03
2023-03-06T12:35:25.440Z,94925.16
2023-03-06T12:38:18.051Z,94922.50
2023-03-06T12:40:57.336Z,94926.34
2023-03-06T12:43:23.820Z,94926.88
2023-03-06T12:45:55.746Z,94924.25
2023-03-06T12:48:24.582Z,94921.81
2023-03-06T12:50:51.662Z,94921.03
2023-03-06T12:53:26.260Z,94921.59
2023-03-06T12:55:53.515Z,94922.41
2023-03-06T12:58:46.560Z,94921.22
2023-03-06T13:01:31.992Z,94918.19
2023-03-06T13:04:17.090Z,94917.16
2023-03-06T13:06:50.724Z,94909.63
2023-03-06T13:09:19.414Z,94908.94
2023-03-06T13:12:05.494Z,94912.69
2023-03-06T13:14:42.398Z,94905.28
2023-03-06T13:17:20.714Z,94915.03
2023-03-06T13:19:48.070Z,94904.34
2023-03-06T13:22:25.452Z,94911.28
2023-03-06T13:25:11.907Z,94909.56
2023-03-06T13:29:30.744Z,94902.09
2023-03-06T13:31:58.102Z,94906.03
2023-03-06T13:34:33.786Z,94901.28
2023-03-06T13:37:18.644Z,94906.69
2023-03-06T13:39:54.225Z,94904.81
2023-03-06T13:42:31.188Z,94902.47
2023-03-06T13:44:58.621Z,94904.56
2023-03-06T13:47:39.721Z,94897.44
2023-03-06T13:50:25.066Z,94901.91
2023-03-06T13:52:57.568Z,94892.50
2023-03-06T13:55:30.680Z,94896.44
2023-03-06T13:58:10.431Z,94890.28
2023-03-06T14:00:37.146Z,94897.59
2023-03-06T14:03:06.662Z,94897.34
2023-03-06T14:05:41.409Z,94895.03
2023-03-06T14:08:13.947Z,94898.41
2023-03-06T14:10:40.798Z,94893.41
2023-03-06T14:13:32.345Z,94891.28
2023-03-06T14:16:11.164Z,94894.13
2023-03-06T14:18:40.048Z,94899.28
2023-03-06T14:21:49.746Z,94895.88
2023-03-06T14:24:18.029Z,94896.41
2023-03-06T14:26:49.127Z,94896.13
2023-03-06T14:29:19.917Z,94893.25
2023-03-06T14:31:48.682Z,94895.53
2023-03-06T14:34:20.498Z,94899.78
2023-03-06T14:36:48.955Z,94893.34
2023-03-06T14:42:18.504Z,94898.16
2023-03-06T14:44:45.778Z,94896.81
2023-03-06T14:47:18.451Z,94895.44
2023-03-06T14:49:44.968Z,94894.88
2023-03-06T14:52:16.913Z,94892.94
2023-03-06T15:06:24.213Z,94884.06
2023-03-06T15:09:02.719Z,94892.06
2023-03-06T15:11:49.485Z,94886.50
2023-03-06T15:14:20.772Z,94882.63
2023-03-06T15:16:47.299Z,94886.13
2023-03-06T15:19:20.847Z,94890.06
2023-03-06T15:21:51.923Z,94894.59
2023-03-06T15:24:32.187Z,94893.84
2023-03-06T15:27:00.791Z,94896.97
2023-03-06T15:29:27.552Z,94896.59
2023-03-06T15:32:12.196Z,94895.63
2023-03-06T15:34:38.826Z,94899.06
2023-03-06T15:37:19.199Z,94897.59
2023-03-06T15:39:46.646Z,94906.25
2023-03-06T15:42:16.276Z,94902.31
2023-03-06T15:44:42.896Z,94903.31
2023-03-06T15:47:11.465Z,94901.47
2023-03-06T15:49:38.792Z,94902.78
2023-03-06T15:52:06.113Z,94905.78
2023-03-06T15:54:33.162Z,94902.13
2023-03-06T15:57:00.052Z,94905.47
2023-03-06T15:59:30.762Z,94909.78
2023-03-06T16:01:57.457Z,94910.47
2023-03-06T16:04:24.073Z,94907.53
2023-03-06T16:06:50.596Z,94906.22
2023-03-06T16:09:17.169Z,94903.56
2023-03-06T16:11:44.948Z,94900.78
2023-03-06T16:14:20.157Z,94896.47
2023-03-06T16:16:47.211Z,94896.47
2023-03-06T16:19:25.372Z,94896.97
2023-03-06T16:21:52.751Z,94902.81
2023-03-06T16:24:19.354Z,94902.81
2023-03-06T16:26:47.529Z,94907.63
2023-03-06T16:29:21.869Z,94900.69
2023-03-06T16:31:48.615Z,94906.00
2023-03-06T16:34:15.362Z,94907.97
2023-03-06T16:36:41.960Z,94907.34
2023-03-06T16:39:19.142Z,94911.16
2023-03-06T16:41:45.997Z,94914.28
2023-03-06T16:44:12.999Z,94914.66
2023-03-06T16:46:41.596Z,94916.97
2023-03-06T16:49:10.002Z,94928.56
2023-03-06T16:51:39.260Z,94927.84
2023-03-06T16:54:05.925Z,94929.00
2023-03-06T16:56:32.447Z,94929.00
2023-03-06T16:58:58.962Z,94932.28
2023-03-06T17:01:25.520Z,94940.19
2023-03-06T17:03:52.078Z,94942.38
2023-03-06T17:06:22.326Z,94938.91
2023-03-06T17:08:49.853Z,94938.44
2023-03-06T17:11:17.028Z,94936.94
2023-03-06T17:13:43.672Z,94940.25
2023-03-06T17:16:12.532Z,94942.25
2023-03-06T17:18:39.057Z,94952.97
2023-03-06T17:21:05.684Z,94958.78
2023-03-06T17:23:32.257Z,94962.91
2023-03-06T17:26:02.794Z,94977.91
2023-03-06T17:28:29.434Z,94992.13
2023-03-06T17:30:55.975Z,94993.47
2023-03-06T17:33:22.748Z,94997.25
2023-03-06T17:35:49.321Z,95010.13
2023-03-06T17:38:15.828Z,95012.91
2023-03-06T17:40:42.350Z,95016.56
2023-03-06T17:43:08.947Z,95011.13
2023-03-06T17:45:36.360Z,95018.34
2023-03-06T17:48:02.927Z,95012.09
2023-03-06T17:50:29.519Z,95006.97
2023-03-06T17:52:56.028Z,95001.34
2023-03-06T17:55:22.658Z,95001.63
2023-03-06T17:57:51.648Z,95008.56
2023-03-06T18:00:18.530Z,95018.94
2023-03-06T18:02:45.442Z,95023.03
2023-03-06T18:05:12.027Z,95011.66
2023-03-06T18:07:39.217Z,95005.84
2023-03-06T18:10:06.106Z,95008.81
2023-03-06T18:12:32.666Z,95005.50
2023-03-06T18:14:59.167Z,94999.88
2023-03-06T18:17:25.774Z,95005.47
2023-03-06T18:19:52.370Z,95017.97
2023-03-06T18:22:18.931Z,95012.06
2023-03-06T18:24:45.502Z,95002.81
2023-03-06T18:27:12.103Z,95003.75
2023-03-06T18:28:34.913Z,95003.06
2023-03-06T18:31:02.252Z,95002.59
2023-03-06T18:33:28.854Z,95007.34
2023-03-06T18:35:55.422Z,95011.25
2023-03-06T18:38:22.012Z,95002.03
2023-03-06T18:40:48.573Z,95012.56
2023-03-06T18:43:15.120Z,95014.53
2023-03-06T18:45:44.341Z,95011.59
2023-03-06T18:48:11.013Z,95016.16
2023-03-06T18:50:37.505Z,95011.22
2023-03-06T18:53:04.135Z,95014.34
2023-03-06T18:55:30.672Z,95025.84
2023-03-06T18:57:57.164Z,95028.81
2023-03-06T19:00:23.854Z,95030.75
2023-03-06T19:05:30.314Z,95039.63
2023-03-06T19:07:57.642Z,95046.41
2023-03-06T19:10:24.187Z,95045.75
2023-03-06T19:12:50.725Z,95047.53
2023-03-06T19:15:17.231Z,95056.94
2023-03-06T19:17:43.836Z,95054.78
2023-03-06T19:20:10.728Z,95054.63
2023-03-06T19:22:37.509Z,95053.47
2023-03-06T19:25:04.211Z,95057.91
2023-03-06T19:27:31.537Z,95053.63
2023-03-06T19:29:58.119Z,95053.00
2023-03-06T19:32:25.191Z,95041.97
2023-03-06T19:34:52.026Z,95048.06
2023-03-06T19:37:18.772Z,95045.56
2023-03-06T19:39:45.311Z,95038.66
2023-03-06T19:42:13.772Z,95034.72
2023-03-06T19:44:40.514Z,95038.66
2023-03-06T19:47:07.242Z,95035.19
2023-03-06T19:49:34.740Z,95030.44
2023-03-06T19:52:01.272Z,95031.56
2023-03-06T19:54:28.010Z,95036.19
2023-03-06T19:56:54.555Z,95031.06
2023-03-06T19:59:21.080Z,95042.56
2023-03-06T20:01:47.617Z,95040.41
2023-03-06T20:04:14.310Z,95044.69
2023-03-06T20:06:40.820Z,95049.66
2023-03-06T20:09:08.608Z,95052.59
2023-03-06T20:11:35.416Z,95045.00
2023-03-06T20:14:02.943Z,95054.72
2023-03-06T20:16:30.100Z,95057.34
2023-03-06T20:18:58.925Z,95065.09
2023-03-06T20:21:26.168Z,95063.44
2023-03-06T20:23:58.196Z,95070.19
2023-03-06T20:26:25.780Z,95077.41
2023-03-06T20:28:52.316Z,95086.16
2023-03-06T20:31:19.866Z,95089.28
2023-03-06T20:33:47.308Z,95083.38
2023-03-06T20:36:15.009Z,95074.34
2023-03-06T20:38:41.646Z,95072.69
2023-03-06T20:41:13.385Z,95077.13
2023-03-06T20:46:19.571Z,95085.19
2023-03-06T20:48:47.843Z,95079.06
2023-03-06T20:51:18.882Z,95080.22
2023-03-06T20:53:49.190Z,95075.09
2023-03-06T20:56:17.410Z,95078.84
2023-03-06T20:58:44.432Z,95069.00
2023-03-06T21:01:23.096Z,95082.69
2023-03-06T21:03:49.827Z,95081.72
2023-03-06T21:06:16.657Z,95066.75
2023-03-06T21:08:43.456Z,95066.06
2023-03-06T21:11:10.136Z,95059.31
2023-03-06T21:13:36.771Z,95074.56
2023-03-06T21:16:04.132Z,95068.91
2023-03-06T21:18:30.689Z,95062.78
2023-03-06T21:20:57.221Z,95066.91
2023-03-06T21:23:23.726Z,95074.66
2023-03-06T21:25:51.442Z,95073.00
2023-03-06T21:30:30.679Z,95076.63
2023-03-06T21:32:57.193Z,95073.16
2023-03-06T21:35:23.790Z,95059.50
2023-03-06T21:37:50.335Z,95061.13
2023-03-06T21:40:16.887Z,95069.88
2023-03-06T21:42:43.493Z,95073.31
2023-03-06T21:45:10.363Z,95067.38
2023-03-06T21:47:38.880Z,95061.59
2023-03-06T21:50:06.775Z,95069.50
2023-03-06T21:52:33.333Z,95064.38
2023-03-06T21:54:59.997Z,95065.34
2023-03-06T21:57:26.572Z,95064.53
2023-03-06T21:59:53.078Z,95060.09
2023-03-06T22:02:19.626Z,95060.41
2023-03-06T22:04:50.146Z,95056.81
2023-03-06T22:07:16.801Z,95058.91
2023-03-06T22:09:43.328Z,95064.47
2023-03-06T22:12:09.906Z,95062.81
2023-03-06T22:14:36.486Z,95059.34
2023-03-06T22:17:03.053Z,95063.13
2023-03-06T22:19:29.924Z,95063.25
2023-03-06T22:21:56.411Z,95065.88
2023-03-06T22:24:23.018Z,95070.16
2023-03-06T22:26:49.524Z,95061.97
2023-03-06T22:29:16.061Z,95064.75
2023-03-06T22:33:11.218Z,95064.75
2023-03-06T22:35:37.726Z,95054.53
2023-03-06T22:38:04.637Z,95058.28
2023-03-06T22:40:31.457Z,95049.88
2023-03-06T22:42:58.027Z,95046.56
2023-03-06T22:45:24.654Z,95048.91
2023-03-06T22:47:55.168Z,95050.72
2023-03-06T22:50:23.976Z,95050.72
2023-03-06T22:52:50.534Z,95054.47
2023-03-06T22:55:17.130Z,95057.25
2023-03-06T22:57:44.026Z,95054.41
2023-03-06T23:00:11.188Z,95057.69
2023-03-06T23:02:38.665Z,95061.81
2023-03-06T23:05:05.262Z,95071.22
2023-03-06T23:07:31.821Z,95076.19
2023-03-06T23:09:58.362Z,95080.94
2023-03-06T23:12:24.923Z,95075.97
2023-03-06T23:14:51.599Z,95067.41
2023-03-06T23:17:18.495Z,95075.13
2023-03-06T23:19:45.293Z,95071.53
2023-03-06T23:22:12.386Z,95065.31
2023-03-06T23:24:38.921Z,95068.22
2023-03-06T23:27:05.451Z,95085.97
2023-03-06T23:29:31.960Z,95081.53
2023-03-06T23:31:58.462Z,95075.75
2023-03-06T23:34:25.076Z,95075.88
2023-03-06T23:36:51.568Z,95081.81
2023-03-06T23:39:18.089Z,95081.44
2023-03-06T23:42:01.430Z,95085.59
2023-03-06T23:44:28.113Z,95084.63
2023-03-06T23:46:54.612Z,95081.69
2023-03-06T23:51:15.926Z,95075.13
2023-03-06T23:53:43.043Z,95071.59
2023-03-06T23:56:09.964Z,95069.28
